Jonesboro Municipal Airport
KJBR : now visible

Airfield :











YOU CAN JOIN US ON...

 
LOGIN :

Register | Disclaimer

   EN    FR    IT 

 









Legend :    VFR   Marginal VFR   IFR   Intensive IFR   Very Intensive IFR
Visi :
Ceiling :
>= 8 km
>= 3000ft
5 to 8 km
1000 to 3000 ft
1500m to 5 km
500 to 1000 ft
800 to 1500m
200 to 500 ft
< 800m
< 200 ft
Symbols :   Thunderstorms  Fog  Heavy snow  Heavy precipitations  Wind > 20 kt






- Airport Elevation : 262 ft
- IATA code : JBR


KJBR - Jonesboro Municipal

CURRENT METAR :
  • 232253Z AUTO 03007KT 10SM FEW060 23/13 A2992 RMK AO2 SLP131 T02280133 $

EXPIRED METARs :
  • 232153Z AUTO 15005KT 10SM CLR 26/14 A2993 RMK AO2 SLP132 T02560139 $
  • 232053Z AUTO 26005KT 10SM FEW049 BKN060 BKN075 26/13 A2994 RMK AO2 SLP138 T02560128 55008 $

TAF KJBR
Valid from the 23 at 18:00 until the 24 at 18:00 UTC


231720Z 2318/2418 19012KT P6SM SCT070 BKN120
FM240000 15008KT P6SM SCT050 BKN120
FM240600 19009KT P6SM FEW060 SCT250 WS020/20040KT
FM241200 19012KT P6SM SCT050 BKN100
KZME FIR / North America



MET'MAP, your aeronautical weather chart ! - Copyright ORBIFLY December 2007 - Disclaimer

ORBIFLY MET'MAP TEAM :

Programming & Development : Alexandra Zaïnal
Concept & original design : Baudouin d'Aumeries
Assistance for programming : Marc-Olivier Méhu
Technical & hardware support : Manuel Goepfert

Contact : metmap@orbifly.com




SOURCES & CREDITS :

   NOAA       Earth
Advisory